Time;durP1;ratioP1;P1;durP2;ratioP2;P2;SDS_P1;SDS_P2;PMS_P1;PMS_P2;Temp;Humidity;BMP_temperature;BMP_pressure;BME280_temperature;BME280_humidity;BME280_pressure;Samples;Min_cycle;Max_cycle;Signal;HPM_P1;HPM_P2
2024/02/22 08:41:18;;;;;;;1.45;0.80;;;;;;;7.96;100.00;95029.34;2083523;28;20549;-65
2024/02/22 11:40:51;;;;;;;1.85;0.70;;;;;;;8.75;100.00;94792.13;2083090;28;20556;-63
2024/02/22 11:41:53;;;;;;;3.05;0.70;;;;;;;8.83;100.00;94761.19;2090902;28;20212;-63
2024/02/22 11:42:55;;;;;;;1.10;0.55;;;;;;;8.89;100.00;94759.94;2086845;28;20266;-63
2024/02/22 11:44:04;;;;;;;1.20;0.70;;;;;;;8.97;100.00;94742.84;2077746;28;20197;-64
2024/02/22 11:45:12;;;;;;;1.52;0.73;;;;;;;9.07;100.00;94737.03;2072476;28;20293;-64
2024/02/22 11:46:14;;;;;;;1.88;0.90;;;;;;;9.25;100.00;94738.34;2070557;28;20201;-60
2024/02/22 11:47:16;;;;;;;1.10;0.60;;;;;;;9.30;100.00;94731.03;2071249;28;20198;-60
2024/02/22 11:48:17;;;;;;;1.35;0.70;;;;;;;9.30;100.00;94741.44;2071058;28;20198;-59
2024/02/22 11:49:20;;;;;;;1.35;0.60;;;;;;;9.35;100.00;94724.69;2072754;28;20224;-60
2024/02/22 11:50:22;;;;;;;1.40;0.50;;;;;;;9.39;99.92;94719.13;2074670;28;20240;-60
2024/02/22 11:51:24;;;;;;;2.40;0.80;;;;;;;9.43;99.26;94704.97;2074228;28;20563;-60
2024/02/22 11:52:26;;;;;;;1.10;0.60;;;;;;;9.54;99.68;94703.38;2074545;28;20844;-60
2024/02/22 11:53:27;;;;;;;2.05;0.60;;;;;;;9.56;97.24;94724.94;2072344;28;20658;-60
2024/02/22 11:54:29;;;;;;;1.10;0.60;;;;;;;9.62;98.45;94701.88;2072645;28;20244;-60
2024/02/22 11:55:32;;;;;;;1.45;0.70;;;;;;;9.64;97.86;94699.97;2072277;28;20232;-60
2024/02/22 11:56:34;;;;;;;1.00;0.50;;;;;;;9.63;96.54;94708.75;2073091;28;20205;-60
2024/02/22 11:57:36;;;;;;;1.00;0.50;;;;;;;9.67;96.65;94718.97;2074820;28;20673;-59
2024/02/22 11:58:40;;;;;;;1.00;0.60;;;;;;;9.63;95.43;94710.53;2073130;28;20206;-60
2024/02/22 11:59:42;;;;;;;3.55;0.70;;;;;;;9.69;95.30;94698.81;2070333;28;20220;-60
2024/02/22 12:00:44;;;;;;;6.53;3.35;;;;;;;9.76;96.12;94680.03;2073288;28;20263;-59
2024/02/22 12:01:46;;;;;;;10.70;4.40;;;;;;;9.87;96.55;94683.63;2073924;28;20213;-60
2024/02/22 12:02:48;;;;;;;4.80;2.55;;;;;;;9.86;96.10;94668.94;2073711;28;20208;-59
2024/02/22 12:03:52;;;;;;;1.33;0.70;;;;;;;9.84;94.39;94676.88;2073675;28;20201;-60
2024/02/22 12:04:55;;;;;;;1.27;0.70;;;;;;;9.82;94.57;94670.09;2074202;28;20217;-60
2024/02/22 12:05:57;;;;;;;1.20;0.65;;;;;;;9.76;94.85;94669.63;2074023;28;20297;-59
2024/02/22 12:07:07;;;;;;;1.38;0.70;;;;;;;9.74;95.33;94662.84;2070069;28;20201;-60
2024/02/22 12:08:11;;;;;;;1.25;0.65;;;;;;;9.73;95.49;94661.19;2073006;28;20205;-60
2024/02/22 12:09:14;;;;;;;1.20;0.60;;;;;;;9.66;94.38;94663.38;2073859;28;20560;-60
2024/02/22 12:10:16;;;;;;;1.95;0.70;;;;;;;9.55;95.16;94642.47;2074205;28;20220;-60
2024/02/22 12:11:18;;;;;;;1.50;0.60;;;;;;;9.70;94.95;94654.41;2073053;28;20201;-61
2024/02/22 12:12:23;;;;;;;1.20;0.60;;;;;;;9.62;93.90;94647.16;2072962;28;20292;-60
2024/02/22 12:13:24;;;;;;;1.30;0.60;;;;;;;9.63;94.33;94664.44;2073866;28;20198;-60
2024/02/22 12:14:27;;;;;;;1.75;0.80;;;;;;;9.63;94.82;94655.81;2069548;28;20233;-60
2024/02/22 12:15:28;;;;;;;1.98;0.80;;;;;;;9.54;93.63;94636.44;2073814;28;20236;-63
2024/02/22 12:16:36;;;;;;;1.25;0.70;;;;;;;9.60;93.85;94641.22;2073127;28;20229;-62
2024/02/22 12:17:38;;;;;;;1.77;0.77;;;;;;;9.47;93.50;94616.97;2079504;28;20200;-61
2024/02/22 12:18:39;;;;;;;1.25;0.70;;;;;;;9.60;94.18;94645.63;2074850;28;20669;-60
2024/02/22 12:22:35;;;;;;;1.20;0.60;;;;;;;9.50;94.19;94642.84;2093655;27;20551;-60
2024/02/22 12:23:37;;;;;;;3.13;0.60;;;;;;;9.57;93.92;94664.06;2089469;28;20220;-60
2024/02/22 12:27:52;;;;;;;1.30;0.70;;;;;;;9.50;94.23;94652.41;2100215;27;21206;-60
2024/02/22 12:32:23;;;;;;;1.40;0.68;;;;;;;9.42;93.85;94643.38;2084058;28;20548;-64
2024/02/22 12:36:15;;;;;;;1.48;0.60;;;;;;;9.38;93.01;94634.09;2082722;28;20561;-64
2024/02/22 12:37:16;;;;;;;1.20;0.60;;;;;;;9.37;93.54;94616.84;2080708;28;20201;-64
2024/02/22 12:40:46;;;;;;;1.50;0.80;;;;;;;9.44;92.90;94614.63;2085209;28;20683;-63
2024/02/22 12:41:47;;;;;;;1.40;0.70;;;;;;;9.47;92.71;94620.44;2081838;28;20624;-64
2024/02/22 12:42:56;;;;;;;1.30;0.60;;;;;;;9.51;92.36;94622.81;2081911;28;20220;-64
2024/02/22 12:43:57;;;;;;;1.33;0.70;;;;;;;9.54;92.66;94623.41;2080567;28;20193;-65
2024/02/22 12:47:14;;;;;;;3.60;0.65;;;;;;;9.54;92.95;94593.94;2102599;27;20569;-66
2024/02/22 12:58:54;;;;;;;1.50;0.80;;;;;;;8.99;100.00;94578.75;2084992;27;20577;-64
